createdAt,value
2023-03-17T10:58:17.285Z,50.42
2023-03-17T11:03:23.516Z,50.26
2023-03-17T11:08:31.572Z,50.83
2023-03-17T11:13:36.750Z,49.81
2023-03-17T11:18:41.858Z,49.93
2023-03-17T11:23:53.888Z,49.38
2023-03-17T11:29:09.904Z,50.66
2023-03-17T11:34:19.872Z,49.62
2023-03-17T11:39:26.497Z,51.24
2023-03-17T11:44:53.631Z,49.92
2023-03-17T11:50:01.465Z,50.82
2023-03-17T11:55:11.156Z,51.27
2023-03-17T12:00:19.789Z,51.83
2023-03-17T12:05:25.040Z,51.47
2023-03-17T12:16:06.720Z,49.48
2023-03-17T12:21:16.769Z,49.71
2023-03-17T12:26:25.232Z,49.87
2023-03-17T12:31:32.722Z,49.79
2023-03-17T12:36:36.693Z,49.65
2023-03-17T12:41:56.792Z,50.52
2023-03-17T12:47:14.965Z,49.88
2023-03-17T12:52:25.973Z,50.29
2023-03-17T12:57:31.007Z,50.33
2023-03-17T13:02:38.300Z,50.23
2023-03-17T13:07:47.999Z,49.63
2023-03-17T13:13:00.325Z,49.88
2023-03-17T13:18:24.479Z,50.33
2023-03-17T13:23:36.515Z,49.41
2023-03-17T13:28:44.657Z,50.02
2023-03-17T13:33:53.377Z,49.58
2023-03-17T13:39:19.342Z,49.50
2023-03-17T13:44:30.869Z,49.61
2023-03-17T13:49:36.599Z,49.57
2023-03-17T13:54:47.889Z,50.01
2023-03-17T13:59:56.434Z,49.42
2023-03-17T14:05:01.545Z,49.21
2023-03-17T14:10:16.805Z,49.69
2023-03-17T14:15:26.031Z,50.38
2023-03-17T14:20:29.599Z,49.54
2023-03-17T14:25:37.597Z,49.59
2023-03-17T14:30:42.852Z,50.22
2023-03-17T14:35:46.158Z,49.35
2023-03-17T14:40:52.279Z,49.59
2023-03-17T14:46:01.491Z,49.80
2023-03-17T14:51:07.420Z,50.22
2023-03-17T14:56:12.126Z,49.67
2023-03-17T15:01:17.314Z,50.32
2023-03-17T15:06:23.481Z,50.74
2023-03-17T15:11:29.070Z,50.39
2023-03-17T15:16:34.961Z,51.05
2023-03-17T15:21:40.505Z,51.32
2023-03-17T15:26:47.472Z,51.19
2023-03-17T15:31:51.095Z,51.55
2023-03-17T15:36:55.546Z,51.50
2023-03-17T15:42:00.308Z,51.77
2023-03-17T15:47:04.035Z,52.89
2023-03-17T15:52:11.032Z,52.29
2023-03-17T15:57:15.988Z,52.02
2023-03-17T16:02:24.651Z,51.76
2023-03-17T16:07:30.808Z,52.02
2023-03-17T16:12:35.455Z,52.07
2023-03-17T16:17:38.731Z,52.87
2023-03-17T16:22:43.472Z,53.03
2023-03-17T16:27:48.315Z,53.41
2023-03-17T16:32:52.129Z,52.41
2023-03-17T16:37:55.676Z,52.76
2023-03-17T16:43:00.329Z,52.67
2023-03-17T16:48:04.791Z,53.20
2023-03-17T16:53:08.128Z,54.00
2023-03-17T16:58:17.944Z,54.98
2023-03-17T17:03:21.269Z,54.62
2023-03-17T17:08:24.792Z,54.84
2023-03-17T17:13:29.582Z,54.93
2023-03-17T17:18:32.861Z,55.62
2023-03-17T17:23:36.282Z,54.97
2023-03-17T17:28:40.988Z,55.43
2023-03-17T17:33:46.582Z,55.92
2023-03-17T17:38:51.707Z,55.84
2023-03-17T17:43:58.589Z,55.67
2023-03-17T17:49:05.916Z,56.93
2023-03-17T17:54:10.352Z,56.27
2023-03-17T17:59:15.324Z,56.24
2023-03-17T18:04:18.652Z,56.34
2023-03-17T18:09:22.338Z,56.39
2023-03-17T18:14:27.660Z,56.57
2023-03-17T18:19:30.955Z,58.08
2023-03-17T18:24:36.043Z,57.80
2023-03-17T18:29:40.700Z,58.10
2023-03-17T18:34:47.247Z,56.74
2023-03-17T18:40:11.601Z,56.89
2023-03-17T18:45:16.042Z,56.81
2023-03-17T18:50:21.855Z,57.49
2023-03-17T18:55:25.491Z,57.47
2023-03-17T19:00:30.557Z,57.38
2023-03-17T19:05:37.529Z,58.02
2023-03-17T19:10:43.328Z,58.70
2023-03-17T19:15:47.987Z,59.81
2023-03-17T19:20:51.268Z,60.88
2023-03-17T19:25:54.564Z,61.42
2023-03-17T19:30:59.543Z,61.97
2023-03-17T19:36:07.114Z,62.48
2023-03-17T19:41:10.412Z,62.77
2023-03-17T19:46:15.088Z,63.03
2023-03-17T19:51:18.649Z,63.22
2023-03-17T19:56:23.013Z,62.93
2023-03-17T20:01:29.016Z,63.51
2023-03-17T20:06:34.886Z,63.46
2023-03-17T20:11:40.761Z,63.79
2023-03-17T20:16:47.405Z,63.57
2023-03-17T20:21:51.003Z,64.47
2023-03-17T20:26:57.226Z,64.68
2023-03-17T20:32:02.174Z,64.85
2023-03-17T20:37:06.026Z,65.15
2023-03-17T20:42:14.609Z,65.02
2023-03-17T20:47:22.225Z,64.97
2023-03-17T20:52:26.494Z,65.17
2023-03-17T20:57:30.675Z,65.49
2023-03-17T21:02:35.611Z,66.47
2023-03-17T21:07:39.413Z,66.34
2023-03-17T21:12:42.840Z,66.70
2023-03-17T21:17:47.615Z,67.09
2023-03-17T21:22:51.541Z,67.65
2023-03-17T21:27:54.926Z,67.75
2023-03-17T21:33:00.181Z,68.10
2023-03-17T21:38:03.840Z,67.86
2023-03-17T21:43:07.206Z,68.24
2023-03-17T21:48:11.961Z,68.93
2023-03-17T21:53:15.806Z,69.28
2023-03-17T21:58:20.556Z,69.04
2023-03-17T22:03:25.789Z,69.79
2023-03-17T22:08:29.506Z,70.11
2023-03-17T22:13:32.781Z,69.98
2023-03-17T22:18:37.868Z,69.83
2023-03-17T22:23:42.560Z,70.26
2023-03-17T22:28:46.731Z,70.33
2023-03-17T22:33:52.291Z,70.34
2023-03-17T22:39:00.744Z,70.53
2023-03-17T22:44:04.313Z,70.78
